Time;durP1;ratioP1;P1;durP2;ratioP2;P2;SDS_P1;SDS_P2;PMS_P1;PMS_P2;Temp;Humidity;BMP_temperature;BMP_pressure;BME280_temperature;BME280_humidity;BME280_pressure;Samples;Min_cycle;Max_cycle;Signal;HPM_P1;HPM_P2
2023/09/27 00:02:22;;;;;;;19.40;17.50;;;;;;;;;;112596;210;40061;-39
2023/09/27 00:04:56;;;;;;;19.30;17.30;;;;;;;;;;112562;210;39705;-38
2023/09/27 00:07:33;;;;;;;18.70;16.80;;;;;;;;;;112506;209;43285;-38
2023/09/27 00:10:09;;;;;;;19.10;17.10;;;;;;;;;;112575;210;43409;-39
2023/09/27 00:12:46;;;;;;;18.10;16.30;;;;;;;;;;112576;210;39926;-39
2023/09/27 00:15:19;;;;;;;18.10;16.20;;;;;;;;;;112603;210;39519;-39
2023/09/27 00:17:58;;;;;;;18.00;16.30;;;;;;;;;;112528;209;42971;-38
2023/09/27 00:20:32;;;;;;;18.00;16.20;;;;;;;;;;112549;210;42085;-38
2023/09/27 00:23:07;;;;;;;17.90;16.10;;;;;;;;;;112530;210;38862;-38
2023/09/27 00:25:41;;;;;;;17.90;16.20;;;;;;;;;;112601;210;41181;-38
2023/09/27 00:28:16;;;;;;;18.10;16.30;;;;;;;;;;112600;209;43253;-38
2023/09/27 00:30:55;;;;;;;17.80;16.10;;;;;;;;;;112627;210;42349;-38
2023/09/27 00:33:31;;;;;;;17.40;15.70;;;;;;;;;;112611;210;38735;-38
2023/09/27 00:36:08;;;;;;;17.90;16.20;;;;;;;;;;112642;210;39396;-38
2023/09/27 00:38:43;;;;;;;18.40;16.60;;;;;;;;;;112601;209;43144;-38
2023/09/27 00:41:17;;;;;;;17.50;15.90;;;;;;;;;;112597;210;41989;-38
2023/09/27 00:43:51;;;;;;;17.20;15.50;;;;;;;;;;112677;210;38424;-39
2023/09/27 00:46:25;;;;;;;17.60;15.90;;;;;;;;;;112644;210;39742;-39
2023/09/27 00:48:59;;;;;;;17.90;16.20;;;;;;;;;;112589;209;42819;-38
2023/09/27 00:51:33;;;;;;;17.60;15.80;;;;;;;;;;112666;210;42306;-38
2023/09/27 00:54:09;;;;;;;17.10;15.40;;;;;;;;;;112569;210;38911;-39
2023/09/27 00:56:45;;;;;;;17.30;15.70;;;;;;;;;;112580;210;39726;-38
2023/09/27 00:59:20;;;;;;;17.30;15.50;;;;;;;;;;112470;209;175193;-38
2023/09/27 01:01:55;;;;;;;16.90;15.10;;;;;;;;;;112544;210;42085;-38
2023/09/27 01:04:32;;;;;;;17.40;15.70;;;;;;;;;;112586;209;38738;-39
2023/09/27 01:07:06;;;;;;;16.90;15.10;;;;;;;;;;112559;210;39625;-39
2023/09/27 01:09:40;;;;;;;16.90;15.20;;;;;;;;;;112563;209;42891;-39
2023/09/27 01:12:14;;;;;;;16.80;15.20;;;;;;;;;;112534;209;42434;-39
2023/09/27 01:14:50;;;;;;;16.70;15.10;;;;;;;;;;112583;210;38711;-39
2023/09/27 01:17:24;;;;;;;17.00;15.30;;;;;;;;;;112630;210;39745;-40
2023/09/27 01:19:58;;;;;;;17.40;15.70;;;;;;;;;;112527;209;42932;-39
2023/09/27 01:22:34;;;;;;;17.20;15.50;;;;;;;;;;112581;209;42374;-39
2023/09/27 01:25:16;;;;;;;16.80;15.20;;;;;;;;;;112581;209;38624;-39
2023/09/27 01:27:50;;;;;;;16.70;15.00;;;;;;;;;;112608;210;39272;-38
2023/09/27 01:30:31;;;;;;;16.70;15.10;;;;;;;;;;112485;209;43134;-39
2023/09/27 01:33:12;;;;;;;16.70;15.00;;;;;;;;;;112565;210;42441;-38
2023/09/27 01:35:49;;;;;;;16.70;15.10;;;;;;;;;;112606;209;38701;-39
2023/09/27 01:38:24;;;;;;;17.20;15.50;;;;;;;;;;112594;209;39440;-39
2023/09/27 01:40:59;;;;;;;17.00;15.30;;;;;;;;;;112569;209;43157;-40
2023/09/27 01:43:33;;;;;;;15.90;14.40;;;;;;;;;;112610;209;42043;-39
2023/09/27 01:46:10;;;;;;;17.10;15.50;;;;;;;;;;112594;209;38708;-38
2023/09/27 01:48:48;;;;;;;16.80;15.20;;;;;;;;;;112594;210;39567;-38
2023/09/27 01:51:28;;;;;;;16.70;15.00;;;;;;;;;;112572;209;42987;-39
2023/09/27 01:54:03;;;;;;;16.40;14.70;;;;;;;;;;112567;210;42130;-38
2023/09/27 01:56:37;;;;;;;16.30;14.60;;;;;;;;;;112512;209;38758;-39
2023/09/27 01:59:12;;;;;;;16.00;14.50;;;;;;;;;;112623;209;40096;-38
2023/09/27 02:01:47;;;;;;;16.70;15.10;;;;;;;;;;112530;210;48734;-38
2023/09/27 02:04:24;;;;;;;16.20;14.50;;;;;;;;;;112586;210;42122;-38
2023/09/27 02:06:59;;;;;;;16.00;14.40;;;;;;;;;;112606;210;38741;-39
2023/09/27 02:09:36;;;;;;;15.80;14.30;;;;;;;;;;112591;210;39759;-38
2023/09/27 02:12:11;;;;;;;16.00;14.50;;;;;;;;;;112587;209;50083;-38
2023/09/27 02:14:47;;;;;;;16.10;14.50;;;;;;;;;;112614;209;42216;-38
2023/09/27 02:17:23;;;;;;;16.40;14.80;;;;;;;;;;112594;209;38907;-38
2023/09/27 02:20:06;;;;;;;15.70;14.10;;;;;;;;;;112575;209;39863;-39
2023/09/27 02:22:42;;;;;;;16.40;14.80;;;;;;;;;;112610;209;50223;-39
2023/09/27 02:25:16;;;;;;;16.00;14.40;;;;;;;;;;112605;209;42140;-39
2023/09/27 02:27:52;;;;;;;15.30;13.80;;;;;;;;;;112561;210;38735;-38
2023/09/27 02:30:27;;;;;;;15.90;14.40;;;;;;;;;;112571;209;39531;-39
2023/09/27 02:33:05;;;;;;;15.50;14.00;;;;;;;;;;112583;210;49727;-39
2023/09/27 02:35:40;;;;;;;15.50;14.00;;;;;;;;;;112610;209;42011;-39
2023/09/27 02:38:17;;;;;;;15.90;14.40;;;;;;;;;;112623;209;38823;-39
2023/09/27 02:40:51;;;;;;;15.40;13.80;;;;;;;;;;112554;209;38565;-38
2023/09/27 02:43:27;;;;;;;15.50;14.00;;;;;;;;;;112635;209;51261;-39
2023/09/27 02:46:01;;;;;;;15.70;14.20;;;;;;;;;;112212;210;329248;-38
2023/09/27 02:48:36;;;;;;;15.60;14.10;;;;;;;;;;112519;210;38772;-38
2023/09/27 02:51:16;;;;;;;16.20;14.60;;;;;;;;;;112547;209;39723;-38
2023/09/27 02:53:51;;;;;;;15.40;13.90;;;;;;;;;;112583;210;49465;-38
2023/09/27 02:56:25;;;;;;;15.40;13.90;;;;;;;;;;112563;210;42252;-39
2023/09/27 02:59:00;;;;;;;15.50;14.00;;;;;;;;;;112549;210;38508;-38
2023/09/27 03:01:34;;;;;;;15.50;14.00;;;;;;;;;;112337;209;193647;-39
2023/09/27 03:04:12;;;;;;;15.20;13.70;;;;;;;;;;112508;210;51131;-39
2023/09/27 03:06:48;;;;;;;14.80;13.40;;;;;;;;;;112466;210;43458;-38
2023/09/27 03:09:24;;;;;;;15.00;13.60;;;;;;;;;;112490;210;39215;-39
2023/09/27 03:11:59;;;;;;;14.70;13.30;;;;;;;;;;112460;210;39702;-39
2023/09/27 03:14:33;;;;;;;15.30;13.80;;;;;;;;;;112514;210;42943;-39
2023/09/27 03:17:06;;;;;;;15.60;14.00;;;;;;;;;;112590;210;42461;-39
2023/09/27 03:19:41;;;;;;;14.50;13.10;;;;;;;;;;112540;210;38943;-39
2023/09/27 03:22:16;;;;;;;15.10;13.60;;;;;;;;;;112510;209;40736;-39
2023/09/27 03:24:52;;;;;;;15.10;13.60;;;;;;;;;;112531;210;44274;-39
2023/09/27 03:27:25;;;;;;;14.70;13.30;;;;;;;;;;112500;210;43423;-40
2023/09/27 03:30:01;;;;;;;15.10;13.60;;;;;;;;;;112542;210;39003;-39
2023/09/27 03:32:35;;;;;;;14.90;13.50;;;;;;;;;;112519;209;39891;-39
2023/09/27 03:35:11;;;;;;;15.30;13.80;;;;;;;;;;112551;210;42818;-39
2023/09/27 03:37:48;;;;;;;14.90;13.50;;;;;;;;;;112545;210;42813;-39
2023/09/27 03:40:23;;;;;;;14.70;13.30;;;;;;;;;;112596;210;39052;-39
2023/09/27 03:42:57;;;;;;;14.30;12.80;;;;;;;;;;112542;209;39946;-40
2023/09/27 03:45:31;;;;;;;14.60;13.20;;;;;;;;;;112562;210;43187;-38
2023/09/27 03:48:08;;;;;;;14.70;13.10;;;;;;;;;;112575;210;42124;-38
2023/09/27 03:50:42;;;;;;;14.50;13.10;;;;;;;;;;112658;210;38707;-39
2023/09/27 03:53:18;;;;;;;14.50;13.10;;;;;;;;;;112555;209;39916;-39
2023/09/27 03:55:57;;;;;;;14.40;13.00;;;;;;;;;;112574;210;43036;-39
2023/09/27 03:58:30;;;;;;;14.40;13.00;;;;;;;;;;112579;210;42084;-38
2023/09/27 04:01:05;;;;;;;14.70;13.30;;;;;;;;;;112469;210;175562;-39
2023/09/27 04:03:40;;;;;;;14.20;12.80;;;;;;;;;;112551;209;39882;-39
2023/09/27 04:06:15;;;;;;;14.00;12.70;;;;;;;;;;112635;210;43029;-39
2023/09/27 04:08:49;;;;;;;14.00;12.60;;;;;;;;;;112599;210;42180;-39
2023/09/27 04:11:24;;;;;;;14.30;12.90;;;;;;;;;;112596;210;38902;-39
2023/09/27 04:13:57;;;;;;;14.70;13.10;;;;;;;;;;112568;209;39689;-39
2023/09/27 04:16:34;;;;;;;14.50;13.10;;;;;;;;;;112606;210;42970;-39
2023/09/27 04:19:08;;;;;;;14.40;13.10;;;;;;;;;;112626;210;42459;-39
2023/09/27 04:21:46;;;;;;;13.50;12.20;;;;;;;;;;112620;210;38755;-38
2023/09/27 04:24:21;;;;;;;14.00;12.70;;;;;;;;;;112531;209;39735;-38
2023/09/27 04:26:56;;;;;;;14.00;12.70;;;;;;;;;;112540;210;43023;-39
2023/09/27 04:29:34;;;;;;;13.40;12.10;;;;;;;;;;112567;210;42106;-38
2023/09/27 04:32:11;;;;;;;13.70;12.40;;;;;;;;;;112587;210;38921;-38
2023/09/27 04:34:46;;;;;;;13.80;12.50;;;;;;;;;;112550;209;39616;-39
2023/09/27 04:37:24;;;;;;;13.70;12.40;;;;;;;;;;112567;210;42857;-39
2023/09/27 04:40:02;;;;;;;13.60;12.20;;;;;;;;;;112599;210;42183;-40
2023/09/27 04:42:38;;;;;;;13.60;12.30;;;;;;;;;;112599;210;39100;-39
2023/09/27 04:45:14;;;;;;;13.50;12.20;;;;;;;;;;112570;209;39732;-39
2023/09/27 04:47:56;;;;;;;13.70;12.30;;;;;;;;;;112634;210;42806;-39
2023/09/27 04:50:31;;;;;;;12.90;11.80;;;;;;;;;;112668;209;42259;-39
2023/09/27 04:53:11;;;;;;;14.10;12.70;;;;;;;;;;112667;210;39030;-38
2023/09/27 04:55:45;;;;;;;13.10;11.90;;;;;;;;;;112563;209;39757;-38
2023/09/27 04:58:23;;;;;;;13.30;12.00;;;;;;;;;;112558;210;42739;-38
2023/09/27 05:00:57;;;;;;;13.60;12.30;;;;;;;;;;112565;209;42089;-40
2023/09/27 05:03:31;;;;;;;13.00;11.80;;;;;;;;;;112552;210;39015;-38
2023/09/27 05:06:08;;;;;;;13.50;12.30;;;;;;;;;;112514;209;39595;-39
2023/09/27 05:08:42;;;;;;;13.40;12.20;;;;;;;;;;112533;209;44060;-38
2023/09/27 05:11:16;;;;;;;13.10;11.90;;;;;;;;;;112542;209;42279;-38
2023/09/27 05:13:50;;;;;;;13.40;12.10;;;;;;;;;;112563;209;37805;-38
2023/09/27 05:16:24;;;;;;;13.30;12.00;;;;;;;;;;112504;209;39811;-38
2023/09/27 05:19:00;;;;;;;13.40;12.10;;;;;;;;;;112576;210;43045;-39
2023/09/27 05:21:35;;;;;;;12.90;11.60;;;;;;;;;;112556;210;42167;-38
2023/09/27 05:24:15;;;;;;;13.50;12.20;;;;;;;;;;112612;210;39871;-38
2023/09/27 05:26:48;;;;;;;13.70;12.40;;;;;;;;;;112653;210;45269;-39
2023/09/27 05:29:23;;;;;;;12.80;11.60;;;;;;;;;;112554;209;43167;-39
2023/09/27 05:31:59;;;;;;;13.40;12.10;;;;;;;;;;112514;210;42364;-39
2023/09/27 05:34:34;;;;;;;13.00;11.80;;;;;;;;;;112569;210;38902;-38
2023/09/27 05:37:10;;;;;;;12.90;11.70;;;;;;;;;;112517;209;45133;-39
2023/09/27 05:39:44;;;;;;;13.50;12.20;;;;;;;;;;112575;209;42939;-39
2023/09/27 05:42:18;;;;;;;13.90;12.50;;;;;;;;;;112604;210;42128;-39
2023/09/27 05:44:53;;;;;;;13.50;12.20;;;;;;;;;;112634;210;38743;-39
2023/09/27 05:47:29;;;;;;;13.60;12.20;;;;;;;;;;112719;209;45330;-39
2023/09/27 05:50:05;;;;;;;13.60;12.20;;;;;;;;;;112603;209;42793;-38
2023/09/27 05:52:44;;;;;;;13.80;12.50;;;;;;;;;;112501;210;175589;-39
2023/09/27 05:55:20;;;;;;;14.30;12.80;;;;;;;;;;112634;209;39987;-39
2023/09/27 05:57:55;;;;;;;13.30;12.00;;;;;;;;;;112548;209;47189;-39
2023/09/27 06:00:37;;;;;;;13.70;12.30;;;;;;;;;;112620;209;44168;-39
2023/09/27 06:03:12;;;;;;;13.90;12.50;;;;;;;;;;112591;209;43433;-39
2023/09/27 06:05:46;;;;;;;14.10;12.70;;;;;;;;;;112566;209;38823;-38
2023/09/27 06:08:21;;;;;;;13.80;12.50;;;;;;;;;;112636;209;39916;-39
2023/09/27 06:10:56;;;;;;;13.90;12.60;;;;;;;;;;112586;209;43020;-39
2023/09/27 06:13:31;;;;;;;14.20;12.80;;;;;;;;;;112618;209;43474;-39
2023/09/27 06:16:16;;;;;;;14.40;12.90;;;;;;;;;;112573;209;40007;-38
2023/09/27 06:18:51;;;;;;;13.50;12.10;;;;;;;;;;112432;210;175574;-38
2023/09/27 06:21:27;;;;;;;14.60;13.10;;;;;;;;;;112561;210;44230;-38
2023/09/27 06:24:03;;;;;;;14.80;13.20;;;;;;;;;;112599;209;43468;-38
2023/09/27 06:26:37;;;;;;;14.40;13.00;;;;;;;;;;112586;209;39104;-38
2023/09/27 06:29:10;;;;;;;15.00;13.20;;;;;;;;;;112604;210;39900;-38
2023/09/27 06:31:49;;;;;;;14.30;12.90;;;;;;;;;;112614;209;43292;-38
2023/09/27 06:34:23;;;;;;;14.80;13.40;;;;;;;;;;112600;209;42305;-38
2023/09/27 06:37:00;;;;;;;14.60;13.10;;;;;;;;;;112583;209;38879;-38
2023/09/27 06:39:37;;;;;;;14.40;13.00;;;;;;;;;;112592;209;39319;-39
2023/09/27 06:42:12;;;;;;;14.80;13.30;;;;;;;;;;112569;209;42829;-39
2023/09/27 06:44:46;;;;;;;14.70;13.30;;;;;;;;;;112593;210;42336;-38
2023/09/27 06:47:23;;;;;;;14.40;12.80;;;;;;;;;;112554;209;38468;-39
2023/09/27 06:49:58;;;;;;;14.60;13.10;;;;;;;;;;112511;209;39808;-39
2023/09/27 06:52:34;;;;;;;15.00;13.40;;;;;;;;;;112416;210;175613;-39
2023/09/27 06:55:13;;;;;;;14.70;13.30;;;;;;;;;;112528;210;41830;-40
2023/09/27 06:57:49;;;;;;;15.20;13.70;;;;;;;;;;112514;209;38684;-37
2023/09/27 07:00:24;;;;;;;15.50;14.00;;;;;;;;;;111882;210;893573;-36
2023/09/27 07:02:58;;;;;;;14.50;13.10;;;;;;;;;;112484;210;44536;-38
2023/09/27 07:05:35;;;;;;;15.80;12.90;;;;;;;;;;112546;210;42398;-37
2023/09/27 07:08:12;;;;;;;14.30;12.80;;;;;;;;;;112377;209;39111;-37
2023/09/27 07:10:46;;;;;;;13.80;12.40;;;;;;;;;;112532;210;39801;-39
2023/09/27 07:13:20;;;;;;;15.40;13.50;;;;;;;;;;112562;210;42965;-37
2023/09/27 07:15:54;;;;;;;15.70;13.20;;;;;;;;;;112527;210;42150;-36
2023/09/27 07:18:29;;;;;;;15.10;13.50;;;;;;;;;;112512;209;38654;-37
2023/09/27 07:21:11;;;;;;;14.60;13.10;;;;;;;;;;112533;210;39861;-37
2023/09/27 07:23:47;;;;;;;15.80;13.70;;;;;;;;;;112426;209;43008;-36
2023/09/27 07:26:24;;;;;;;15.10;13.60;;;;;;;;;;112428;210;42176;-38
2023/09/27 07:29:00;;;;;;;15.70;13.90;;;;;;;;;;112407;209;38877;-39
2023/09/27 07:31:37;;;;;;;15.60;14.00;;;;;;;;;;112553;210;39779;-37
2023/09/27 07:34:11;;;;;;;15.50;13.90;;;;;;;;;;112527;210;43020;-38
2023/09/27 07:36:47;;;;;;;15.10;13.50;;;;;;;;;;112528;210;42446;-41
2023/09/27 07:39:22;;;;;;;14.90;13.40;;;;;;;;;;112546;209;38849;-37
2023/09/27 07:41:59;;;;;;;14.80;13.20;;;;;;;;;;112475;210;39605;-36
2023/09/27 07:44:35;;;;;;;15.80;13.40;;;;;;;;;;112547;210;42758;-37
2023/09/27 07:47:13;;;;;;;14.90;13.30;;;;;;;;;;112580;210;42107;-35
2023/09/27 07:49:49;;;;;;;14.80;13.20;;;;;;;;;;112696;209;38691;-37
2023/09/27 07:52:25;;;;;;;16.20;14.40;;;;;;;;;;112507;210;39384;-38
2023/09/27 07:54:59;;;;;;;15.80;14.30;;;;;;;;;;112539;210;42875;-37
2023/09/27 07:57:34;;;;;;;15.00;13.40;;;;;;;;;;112440;210;42309;-38
2023/09/27 08:00:15;;;;;;;15.70;14.00;;;;;;;;;;112489;210;44495;-38
2023/09/27 08:02:51;;;;;;;16.50;14.80;;;;;;;;;;112487;210;39329;-38
2023/09/27 08:05:26;;;;;;;16.10;14.10;;;;;;;;;;112560;210;43105;-37
2023/09/27 08:08:03;;;;;;;16.10;14.40;;;;;;;;;;112433;209;42295;-36
2023/09/27 08:10:43;;;;;;;16.00;14.30;;;;;;;;;;112511;210;46454;-37
2023/09/27 08:13:18;;;;;;;15.10;13.60;;;;;;;;;;112429;209;39820;-41
2023/09/27 08:15:53;;;;;;;15.50;13.90;;;;;;;;;;112557;210;42998;-37
2023/09/27 08:18:28;;;;;;;14.90;13.50;;;;;;;;;;112545;210;42227;-37
2023/09/27 08:21:05;;;;;;;15.20;13.00;;;;;;;;;;112493;210;38661;-37
2023/09/27 08:23:41;;;;;;;14.90;13.30;;;;;;;;;;112445;210;39766;-35
2023/09/27 08:26:16;;;;;;;14.80;13.30;;;;;;;;;;112440;210;42452;-36
2023/09/27 08:28:51;;;;;;;15.20;13.60;;;;;;;;;;112382;209;41955;-36
2023/09/27 08:31:25;;;;;;;14.50;13.00;;;;;;;;;;112401;210;38607;-36
2023/09/27 08:34:01;;;;;;;15.00;13.40;;;;;;;;;;112391;210;39737;-35
2023/09/27 08:36:37;;;;;;;14.50;13.00;;;;;;;;;;112396;210;42963;-36
2023/09/27 08:39:16;;;;;;;14.50;13.10;;;;;;;;;;112564;209;42314;-36
2023/09/27 08:41:53;;;;;;;15.30;13.60;;;;;;;;;;112609;210;38556;-35
2023/09/27 08:44:29;;;;;;;15.30;13.70;;;;;;;;;;112644;210;39425;-36
2023/09/27 08:47:04;;;;;;;14.60;13.00;;;;;;;;;;112648;210;42966;-36
2023/09/27 08:49:39;;;;;;;13.80;12.40;;;;;;;;;;112681;209;42248;-36
2023/09/27 08:52:14;;;;;;;13.90;12.60;;;;;;;;;;112615;210;38795;-35
2023/09/27 08:54:50;;;;;;;15.10;13.50;;;;;;;;;;112568;210;39745;-35
2023/09/27 08:57:27;;;;;;;14.30;12.80;;;;;;;;;;112449;210;196157;-35
2023/09/27 09:00:02;;;;;;;14.40;13.00;;;;;;;;;;112562;209;42122;-35
2023/09/27 09:02:38;;;;;;;14.90;13.30;;;;;;;;;;112707;209;40211;-35
2023/09/27 09:05:13;;;;;;;14.60;13.10;;;;;;;;;;112641;209;39452;-35
2023/09/27 09:07:47;;;;;;;14.80;13.30;;;;;;;;;;112598;209;42760;-35
2023/09/27 09:10:23;;;;;;;14.40;13.00;;;;;;;;;;112591;209;42619;-35
2023/09/27 09:13:03;;;;;;;14.90;13.30;;;;;;;;;;112632;209;38780;-35
2023/09/27 09:15:41;;;;;;;14.70;13.20;;;;;;;;;;112626;209;39509;-35
2023/09/27 09:18:32;;;;;;;14.70;13.20;;;;;;;;;;112599;209;42802;-35
2023/09/27 09:21:17;;;;;;;14.90;13.40;;;;;;;;;;112586;209;43241;-35
2023/09/27 09:23:50;;;;;;;;;;;;;;;;;;112637;209;38846;-35
2023/09/27 09:26:31;;;;;;;14.20;12.80;;;;;;;;;;112555;209;40059;-35
2023/09/27 09:29:08;;;;;;;14.90;13.40;;;;;;;;;;112542;210;42822;-35
2023/09/27 09:31:58;;;;;;;14.50;13.00;;;;;;;;;;112463;209;175058;-35
2023/09/27 09:34:43;;;;;;;14.60;13.10;;;;;;;;;;112577;210;38757;-35
2023/09/27 09:37:26;;;;;;;13.90;12.40;;;;;;;;;;112556;210;39618;-35
2023/09/27 09:40:15;;;;;;;14.30;12.80;;;;;;;;;;112513;210;42765;-35
2023/09/27 09:42:57;;;;;;;14.60;12.80;;;;;;;;;;112567;210;43370;-35
2023/09/27 09:45:34;;;;;;;13.60;12.20;;;;;;;;;;112577;210;38824;-35
2023/09/27 09:48:13;;;;;;;14.10;12.80;;;;;;;;;;112600;209;39494;-35
2023/09/27 09:50:52;;;;;;;13.90;12.50;;;;;;;;;;112549;209;42847;-35
2023/09/27 09:53:31;;;;;;;13.90;12.50;;;;;;;;;;112604;210;42243;-35
2023/09/27 09:56:08;;;;;;;14.30;12.80;;;;;;;;;;112584;210;39040;-35
2023/09/27 09:59:07;;;;;;;14.30;12.90;;;;;;;;;;112552;210;39291;-35
2023/09/27 10:01:45;;;;;;;14.00;12.60;;;;;;;;;;112555;209;42761;-35
2023/09/27 10:04:23;;;;;;;14.70;13.20;;;;;;;;;;112567;210;41969;-35
2023/09/27 10:07:02;;;;;;;14.20;12.80;;;;;;;;;;112599;209;38919;-35
2023/09/27 10:09:39;;;;;;;14.40;13.00;;;;;;;;;;112581;209;39824;-35
2023/09/27 10:12:16;;;;;;;14.50;13.00;;;;;;;;;;112540;209;42933;-35
2023/09/27 10:14:51;;;;;;;14.50;13.00;;;;;;;;;;112632;209;42241;-35
2023/09/27 10:17:28;;;;;;;14.10;12.60;;;;;;;;;;112600;210;38987;-35
2023/09/27 10:20:20;;;;;;;13.50;12.20;;;;;;;;;;112584;210;39604;-35
2023/09/27 10:22:56;;;;;;;14.70;12.10;;;;;;;;;;112559;209;43261;-35
2023/09/27 10:25:37;;;;;;;13.70;12.30;;;;;;;;;;112613;210;42294;-35
2023/09/27 10:28:12;;;;;;;14.20;12.80;;;;;;;;;;112613;209;39091;-35
2023/09/27 10:31:09;;;;;;;14.20;12.80;;;;;;;;;;112586;209;40203;-35
2023/09/27 10:33:47;;;;;;;14.30;12.90;;;;;;;;;;112584;209;48523;-36
2023/09/27 10:36:34;;;;;;;13.70;12.30;;;;;;;;;;112589;210;42354;-35
2023/09/27 10:39:09;;;;;;;13.40;12.10;;;;;;;;;;112601;209;38676;-35
2023/09/27 10:41:50;;;;;;;14.30;12.80;;;;;;;;;;112553;209;40829;-35
2023/09/27 10:44:34;;;;;;;14.30;12.80;;;;;;;;;;112561;209;50595;-35
2023/09/27 10:47:14;;;;;;;13.90;12.40;;;;;;;;;;112275;210;109556;-35
2023/09/27 10:49:52;;;;;;;13.80;12.30;;;;;;;;;;112547;209;38864;-35
2023/09/27 10:52:27;;;;;;;13.90;12.40;;;;;;;;;;112505;209;39659;-35
2023/09/27 10:55:16;;;;;;;13.90;12.00;;;;;;;;;;112589;210;42827;-35
2023/09/27 10:57:54;;;;;;;13.50;11.90;;;;;;;;;;112503;210;42108;-35
2023/09/27 11:00:29;;;;;;;13.60;12.20;;;;;;;;;;112547;210;38684;-35
2023/09/27 11:03:17;;;;;;;13.20;11.90;;;;;;;;;;112497;209;39848;-35
2023/09/27 11:05:55;;;;;;;14.10;12.10;;;;;;;;;;112551;210;42933;-35
2023/09/27 11:08:30;;;;;;;13.30;12.00;;;;;;;;;;112540;210;42245;-35
2023/09/27 11:11:11;;;;;;;13.20;11.80;;;;;;;;;;112580;210;38698;-35
2023/09/27 11:13:46;;;;;;;12.80;11.40;;;;;;;;;;112530;209;39968;-36
2023/09/27 11:16:22;;;;;;;12.70;11.40;;;;;;;;;;112494;210;43069;-36
2023/09/27 11:18:57;;;;;;;13.20;11.80;;;;;;;;;;112549;210;42247;-36
2023/09/27 11:21:32;;;;;;;12.50;11.20;;;;;;;;;;112533;210;38645;-35
2023/09/27 11:24:12;;;;;;;13.20;11.30;;;;;;;;;;112481;209;39911;-35
2023/09/27 11:26:47;;;;;;;12.50;11.20;;;;;;;;;;112599;210;42965;-35
2023/09/27 11:29:27;;;;;;;12.70;11.40;;;;;;;;;;112551;210;42399;-35
2023/09/27 11:32:03;;;;;;;12.00;10.80;;;;;;;;;;112396;210;38702;-35
2023/09/27 11:34:38;;;;;;;11.50;10.40;;;;;;;;;;112527;210;39591;-35
2023/09/27 11:37:23;;;;;;;12.00;10.70;;;;;;;;;;112568;210;42807;-36
2023/09/27 11:39:59;;;;;;;12.70;11.40;;;;;;;;;;112489;210;42560;-36
2023/09/27 11:42:35;;;;;;;12.80;11.50;;;;;;;;;;112564;210;38924;-36
2023/09/27 11:45:12;;;;;;;12.50;11.20;;;;;;;;;;112517;210;41057;-36
2023/09/27 11:47:51;;;;;;;11.90;10.70;;;;;;;;;;112523;210;44088;-36
2023/09/27 11:50:27;;;;;;;11.30;10.10;;;;;;;;;;112544;210;42213;-36
2023/09/27 11:53:03;;;;;;;12.30;10.80;;;;;;;;;;112563;210;38460;-36
2023/09/27 11:55:39;;;;;;;11.90;10.10;;;;;;;;;;112485;209;39972;-35
2023/09/27 11:58:16;;;;;;;11.70;10.40;;;;;;;;;;112531;210;43202;-35
2023/09/27 12:00:52;;;;;;;11.70;10.50;;;;;;;;;;112581;210;42273;-35
2023/09/27 12:03:28;;;;;;;11.80;10.50;;;;;;;;;;112598;210;38909;-35
2023/09/27 12:06:07;;;;;;;10.90;9.80;;;;;;;;;;112606;210;39657;-35
2023/09/27 12:08:45;;;;;;;11.90;10.60;;;;;;;;;;112647;210;43014;-35
2023/09/27 12:11:19;;;;;;;11.40;10.20;;;;;;;;;;112579;210;42414;-35
2023/09/27 12:13:54;;;;;;;11.30;9.80;;;;;;;;;;112535;209;38804;-36
2023/09/27 12:16:31;;;;;;;11.60;9.80;;;;;;;;;;112596;210;39704;-35
2023/09/27 12:19:07;;;;;;;11.10;9.90;;;;;;;;;;112421;210;43281;-35
2023/09/27 12:21:43;;;;;;;10.60;9.60;;;;;;;;;;112588;210;42270;-35
2023/09/27 12:24:17;;;;;;;10.40;9.30;;;;;;;;;;112570;209;38875;-36
2023/09/27 12:26:53;;;;;;;11.10;9.90;;;;;;;;;;112588;210;39792;-36
2023/09/27 12:29:28;;;;;;;10.30;9.30;;;;;;;;;;112566;210;42844;-36
2023/09/27 12:32:02;;;;;;;10.60;9.60;;;;;;;;;;112598;210;42319;-35
2023/09/27 12:34:38;;;;;;;11.20;10.00;;;;;;;;;;112581;209;38909;-35
2023/09/27 12:37:11;;;;;;;11.80;10.40;;;;;;;;;;112569;210;39904;-35
2023/09/27 12:39:50;;;;;;;10.20;9.00;;;;;;;;;;112581;210;42745;-35
2023/09/27 12:42:27;;;;;;;10.50;9.10;;;;;;;;;;112593;210;42324;-35
2023/09/27 12:45:03;;;;;;;10.30;9.20;;;;;;;;;;112573;209;38727;-35
2023/09/27 12:47:41;;;;;;;10.40;9.40;;;;;;;;;;112631;210;39554;-35
2023/09/27 12:50:16;;;;;;;10.10;8.90;;;;;;;;;;112615;210;43108;-35
2023/09/27 12:52:53;;;;;;;10.20;9.10;;;;;;;;;;112468;210;42006;-35
2023/09/27 12:55:27;;;;;;;11.00;9.10;;;;;;;;;;112320;210;39049;-35
2023/09/27 12:58:04;;;;;;;10.70;9.60;;;;;;;;;;112556;210;39626;-35
2023/09/27 13:00:40;;;;;;;10.60;8.80;;;;;;;;;;112556;210;42912;-35
2023/09/27 13:03:16;;;;;;;11.20;9.20;;;;;;;;;;112591;210;42281;-36
2023/09/27 13:05:50;;;;;;;10.30;8.90;;;;;;;;;;112526;209;39185;-35
2023/09/27 13:08:26;;;;;;;10.60;9.20;;;;;;;;;;112554;210;39803;-35
2023/09/27 13:11:01;;;;;;;10.80;9.30;;;;;;;;;;112592;210;42797;-35
2023/09/27 13:13:35;;;;;;;10.40;9.20;;;;;;;;;;112590;210;42386;-36
2023/09/27 13:16:11;;;;;;;11.20;9.00;;;;;;;;;;112563;209;39063;-36
2023/09/27 13:18:50;;;;;;;10.30;9.00;;;;;;;;;;112605;209;39271;-35
2023/09/27 13:21:29;;;;;;;10.30;9.00;;;;;;;;;;112558;209;42883;-35
2023/09/27 13:24:05;;;;;;;9.80;8.80;;;;;;;;;;112607;210;42089;-35
2023/09/27 13:26:39;;;;;;;9.50;8.30;;;;;;;;;;112583;209;39979;-35
2023/09/27 13:29:13;;;;;;;9.90;8.70;;;;;;;;;;112595;210;39781;-35
2023/09/27 13:31:48;;;;;;;9.80;8.40;;;;;;;;;;112569;209;42996;-35
2023/09/27 13:34:25;;;;;;;10.30;8.90;;;;;;;;;;112604;210;42054;-35
2023/09/27 13:36:59;;;;;;;14.20;8.90;;;;;;;;;;112490;209;38854;-38
2023/09/27 13:39:36;;;;;;;11.00;8.90;;;;;;;;;;112517;210;39617;-39
2023/09/27 13:42:10;;;;;;;10.60;8.50;;;;;;;;;;112499;209;42782;-40
2023/09/27 13:44:46;;;;;;;9.40;8.40;;;;;;;;;;112409;210;43404;-43
2023/09/27 13:47:20;;;;;;;10.20;8.80;;;;;;;;;;112503;209;39108;-40
2023/09/27 13:49:55;;;;;;;9.60;8.60;;;;;;;;;;112558;210;40171;-39
2023/09/27 13:52:30;;;;;;;9.40;8.10;;;;;;;;;;112380;210;44030;-40
2023/09/27 13:55:11;;;;;;;9.50;8.60;;;;;;;;;;112518;210;42294;-41
2023/09/27 13:57:47;;;;;;;9.50;8.00;;;;;;;;;;112526;210;38831;-40
2023/09/27 14:00:26;;;;;;;10.10;8.30;;;;;;;;;;112435;210;40810;-40
2023/09/27 14:03:01;;;;;;;10.40;8.30;;;;;;;;;;112528;210;43285;-43
2023/09/27 14:05:38;;;;;;;9.50;8.10;;;;;;;;;;112475;210;41885;-40
2023/09/27 14:08:13;;;;;;;9.40;8.30;;;;;;;;;;112498;209;39237;-38
2023/09/27 14:10:49;;;;;;;9.00;8.10;;;;;;;;;;112443;210;40615;-39
2023/09/27 14:13:27;;;;;;;9.40;8.00;;;;;;;;;;112519;210;42677;-38
2023/09/27 14:16:01;;;;;;;9.70;7.80;;;;;;;;;;112549;210;43447;-38
2023/09/27 14:18:35;;;;;;;9.00;8.10;;;;;;;;;;112371;209;45778;-38
2023/09/27 14:21:11;;;;;;;9.60;7.90;;;;;;;;;;112527;209;40866;-38
2023/09/27 14:23:48;;;;;;;9.20;8.20;;;;;;;;;;112539;210;43990;-39
2023/09/27 14:26:25;;;;;;;9.10;7.80;;;;;;;;;;112403;210;43428;-38
2023/09/27 14:29:05;;;;;;;9.40;7.70;;;;;;;;;;112314;210;44762;-39
2023/09/27 14:31:49;;;;;;;8.90;7.60;;;;;;;;;;112297;210;39870;-38
2023/09/27 14:34:25;;;;;;;8.90;7.90;;;;;;;;;;112238;210;42704;-38
2023/09/27 14:37:18;;;;;;;8.80;7.50;;;;;;;;;;112252;209;42011;-38
2023/09/27 14:39:55;;;;;;;8.80;7.80;;;;;;;;;;113174;209;38710;-38
2023/09/27 14:42:33;;;;;;;9.90;7.50;;;;;;;;;;112521;209;39743;-38
2023/09/27 14:45:11;;;;;;;10.90;7.70;;;;;;;;;;112592;209;42834;-38
2023/09/27 14:48:08;;;;;;;8.80;7.80;;;;;;;;;;112552;209;44413;-38
2023/09/27 14:50:45;;;;;;;8.10;7.20;;;;;;;;;;112668;210;39010;-39
2023/09/27 14:53:25;;;;;;;10.00;8.00;;;;;;;;;;112615;209;40610;-38
2023/09/27 14:56:09;;;;;;;9.10;8.10;;;;;;;;;;112538;209;42968;-38
2023/09/27 14:58:47;;;;;;;8.70;7.70;;;;;;;;;;112556;209;42156;-39
2023/09/27 15:01:24;;;;;;;8.50;7.60;;;;;;;;;;112558;210;39052;-38
2023/09/27 15:04:02;;;;;;;9.80;7.50;;;;;;;;;;112525;210;40286;-37
2023/09/27 15:06:39;;;;;;;9.40;7.90;;;;;;;;;;112418;210;175503;-38
2023/09/27 15:09:13;;;;;;;8.70;7.60;;;;;;;;;;112404;209;195268;-38
2023/09/27 15:11:48;;;;;;;8.70;7.80;;;;;;;;;;112502;210;39137;-38
2023/09/27 15:14:26;;;;;;;9.60;8.00;;;;;;;;;;112507;210;39854;-38
2023/09/27 15:17:02;;;;;;;9.30;7.50;;;;;;;;;;112452;210;42933;-38